sensor_id;sensor_type;location;lat;lon;timestamp;P1;durP1;ratioP1;P2;durP2;ratioP2
43345;SDS011;28937;51.160;4.146;2022-09-13T00:00:36;7.70;;;4.75;;
43345;SDS011;28937;51.160;4.146;2022-09-13T00:03:03;6.75;;;4.45;;
43345;SDS011;28937;51.160;4.146;2022-09-13T00:05:29;8.05;;;4.85;;
43345;SDS011;28937;51.160;4.146;2022-09-13T00:07:55;7.97;;;4.55;;
43345;SDS011;28937;51.160;4.146;2022-09-13T00:10:21;8.65;;;4.43;;
43345;SDS011;28937;51.160;4.146;2022-09-13T00:12:47;5.22;;;4.30;;
43345;SDS011;28937;51.160;4.146;2022-09-13T00:15:13;7.00;;;4.75;;
43345;SDS011;28937;51.160;4.146;2022-09-13T00:17:39;6.00;;;4.22;;
43345;SDS011;28937;51.160;4.146;2022-09-13T00:20:05;5.53;;;4.30;;
43345;SDS011;28937;51.160;4.146;2022-09-13T00:22:31;6.65;;;3.85;;
43345;SDS011;28937;51.160;4.146;2022-09-13T00:24:56;6.80;;;4.55;;
43345;SDS011;28937;51.160;4.146;2022-09-13T00:27:22;6.13;;;4.05;;
43345;SDS011;28937;51.160;4.146;2022-09-13T00:29:47;5.90;;;4.20;;
43345;SDS011;28937;51.160;4.146;2022-09-13T00:32:13;7.82;;;4.30;;
43345;SDS011;28937;51.160;4.146;2022-09-13T00:34:38;7.43;;;4.75;;
43345;SDS011;28937;51.160;4.146;2022-09-13T00:37:04;6.00;;;4.35;;
43345;SDS011;28937;51.160;4.146;2022-09-13T00:39:30;6.32;;;4.05;;
43345;SDS011;28937;51.160;4.146;2022-09-13T00:41:55;6.05;;;4.40;;
43345;SDS011;28937;51.160;4.146;2022-09-13T00:47:12;5.07;;;4.30;;
43345;SDS011;28937;51.160;4.146;2022-09-13T00:49:40;6.93;;;4.28;;
43345;SDS011;28937;51.160;4.146;2022-09-13T00:52:08;6.00;;;3.97;;
43345;SDS011;28937;51.160;4.146;2022-09-13T00:54:39;8.05;;;4.30;;
43345;SDS011;28937;51.160;4.146;2022-09-13T00:57:08;4.85;;;3.85;;
43345;SDS011;28937;51.160;4.146;2022-09-13T00:59:36;7.25;;;4.25;;
43345;SDS011;28937;51.160;4.146;2022-09-13T01:02:05;5.03;;;3.65;;
43345;SDS011;28937;51.160;4.146;2022-09-13T01:04:31;6.88;;;3.40;;
43345;SDS011;28937;51.160;4.146;2022-09-13T01:07:03;10.27;;;3.65;;
43345;SDS011;28937;51.160;4.146;2022-09-13T01:09:32;5.05;;;3.80;;
43345;SDS011;28937;51.160;4.146;2022-09-13T01:12:05;6.22;;;4.07;;
43345;SDS011;28937;51.160;4.146;2022-09-13T01:14:39;6.45;;;4.28;;
43345;SDS011;28937;51.160;4.146;2022-09-13T01:17:05;6.53;;;4.20;;
43345;SDS011;28937;51.160;4.146;2022-09-13T01:19:32;6.93;;;4.18;;
43345;SDS011;28937;51.160;4.146;2022-09-13T01:25:17;7.80;;;3.70;;
43345;SDS011;28937;51.160;4.146;2022-09-13T01:31:11;6.00;;;3.45;;
43345;SDS011;28937;51.160;4.146;2022-09-13T01:34:04;4.03;;;3.58;;
43345;SDS011;28937;51.160;4.146;2022-09-13T01:44:51;5.35;;;3.40;;
43345;SDS011;28937;51.160;4.146;2022-09-13T01:47:30;6.30;;;3.92;;
43345;SDS011;28937;51.160;4.146;2022-09-13T01:55:22;4.28;;;3.65;;
43345;SDS011;28937;51.160;4.146;2022-09-13T02:00:55;8.10;;;3.58;;
43345;SDS011;28937;51.160;4.146;2022-09-13T02:06:33;4.32;;;3.67;;
43345;SDS011;28937;51.160;4.146;2022-09-13T02:09:14;8.05;;;3.25;;
43345;SDS011;28937;51.160;4.146;2022-09-13T02:11:43;5.78;;;3.38;;
43345;SDS011;28937;51.160;4.146;2022-09-13T02:14:14;11.05;;;3.78;;
43345;SDS011;28937;51.160;4.146;2022-09-13T02:16:58;7.70;;;3.53;;
43345;SDS011;28937;51.160;4.146;2022-09-13T02:22:00;5.82;;;3.55;;
43345;SDS011;28937;51.160;4.146;2022-09-13T02:24:33;4.97;;;3.65;;
43345;SDS011;28937;51.160;4.146;2022-09-13T02:27:08;4.43;;;3.42;;
43345;SDS011;28937;51.160;4.146;2022-09-13T02:29:39;5.28;;;4.05;;
43345;SDS011;28937;51.160;4.146;2022-09-13T02:32:17;4.78;;;3.83;;
43345;SDS011;28937;51.160;4.146;2022-09-13T02:34:53;4.47;;;3.30;;
43345;SDS011;28937;51.160;4.146;2022-09-13T02:37:28;7.35;;;3.70;;
43345;SDS011;28937;51.160;4.146;2022-09-13T02:39:58;7.20;;;4.00;;
43345;SDS011;28937;51.160;4.146;2022-09-13T02:42:43;10.05;;;3.88;;
43345;SDS011;28937;51.160;4.146;2022-09-13T02:45:16;5.80;;;3.78;;
43345;SDS011;28937;51.160;4.146;2022-09-13T02:58:31;5.03;;;3.40;;
43345;SDS011;28937;51.160;4.146;2022-09-13T03:01:07;7.57;;;3.80;;
43345;SDS011;28937;51.160;4.146;2022-09-13T03:03:33;4.93;;;3.45;;
43345;SDS011;28937;51.160;4.146;2022-09-13T03:05:58;3.78;;;3.35;;
43345;SDS011;28937;51.160;4.146;2022-09-13T03:08:24;5.78;;;3.63;;
43345;SDS011;28937;51.160;4.146;2022-09-13T03:16:22;8.25;;;3.03;;
43345;SDS011;28937;51.160;4.146;2022-09-13T03:27:58;5.18;;;2.63;;
43345;SDS011;28937;51.160;4.146;2022-09-13T03:30:39;4.70;;;2.78;;
43345;SDS011;28937;51.160;4.146;2022-09-13T03:35:54;5.47;;;2.65;;
43345;SDS011;28937;51.160;4.146;2022-09-13T03:38:38;6.55;;;2.60;;
43345;SDS011;28937;51.160;4.146;2022-09-13T03:41:11;4.13;;;2.55;;
43345;SDS011;28937;51.160;4.146;2022-09-13T03:46:17;4.32;;;2.60;;
43345;SDS011;28937;51.160;4.146;2022-09-13T03:48:50;2.92;;;2.38;;
43345;SDS011;28937;51.160;4.146;2022-09-13T03:51:17;9.00;;;2.72;;
43345;SDS011;28937;51.160;4.146;2022-09-13T03:53:48;4.28;;;2.88;;
43345;SDS011;28937;51.160;4.146;2022-09-13T03:56:20;4.90;;;3.42;;
43345;SDS011;28937;51.160;4.146;2022-09-13T03:58:46;5.82;;;2.80;;
43345;SDS011;28937;51.160;4.146;2022-09-13T04:01:12;6.18;;;3.28;;
43345;SDS011;28937;51.160;4.146;2022-09-13T04:03:38;3.47;;;3.08;;
43345;SDS011;28937;51.160;4.146;2022-09-13T04:06:04;6.43;;;2.83;;
43345;SDS011;28937;51.160;4.146;2022-09-13T04:08:33;4.55;;;3.35;;
43345;SDS011;28937;51.160;4.146;2022-09-13T04:10:58;5.43;;;2.88;;
43345;SDS011;28937;51.160;4.146;2022-09-13T04:13:25;5.68;;;3.28;;
43345;SDS011;28937;51.160;4.146;2022-09-13T04:15:51;5.22;;;2.80;;
43345;SDS011;28937;51.160;4.146;2022-09-13T04:18:17;5.25;;;3.35;;
43345;SDS011;28937;51.160;4.146;2022-09-13T04:20:42;4.22;;;2.88;;
43345;SDS011;28937;51.160;4.146;2022-09-13T04:23:08;4.07;;;2.65;;
43345;SDS011;28937;51.160;4.146;2022-09-13T04:25:36;4.65;;;3.30;;
43345;SDS011;28937;51.160;4.146;2022-09-13T04:28:03;5.22;;;3.25;;
43345;SDS011;28937;51.160;4.146;2022-09-13T04:30:28;3.22;;;2.92;;
43345;SDS011;28937;51.160;4.146;2022-09-13T04:32:54;5.40;;;3.50;;
43345;SDS011;28937;51.160;4.146;2022-09-13T04:35:20;3.17;;;2.58;;
43345;SDS011;28937;51.160;4.146;2022-09-13T04:37:46;3.53;;;3.20;;
43345;SDS011;28937;51.160;4.146;2022-09-13T04:40:11;4.10;;;3.38;;
43345;SDS011;28937;51.160;4.146;2022-09-13T04:42:38;3.78;;;3.10;;
43345;SDS011;28937;51.160;4.146;2022-09-13T04:45:04;4.32;;;2.85;;
43345;SDS011;28937;51.160;4.146;2022-09-13T04:47:30;7.28;;;3.20;;
43345;SDS011;28937;51.160;4.146;2022-09-13T04:49:56;4.68;;;3.22;;
43345;SDS011;28937;51.160;4.146;2022-09-13T04:52:21;5.45;;;3.20;;
43345;SDS011;28937;51.160;4.146;2022-09-13T04:54:47;5.25;;;3.20;;
43345;SDS011;28937;51.160;4.146;2022-09-13T04:57:14;4.18;;;3.00;;
43345;SDS011;28937;51.160;4.146;2022-09-13T04:59:40;4.45;;;3.08;;
43345;SDS011;28937;51.160;4.146;2022-09-13T05:02:06;4.90;;;2.90;;
43345;SDS011;28937;51.160;4.146;2022-09-13T05:04:32;4.13;;;3.25;;
43345;SDS011;28937;51.160;4.146;2022-09-13T05:06:57;6.30;;;3.42;;
43345;SDS011;28937;51.160;4.146;2022-09-13T05:09:23;5.72;;;4.32;;
43345;SDS011;28937;51.160;4.146;2022-09-13T05:11:48;6.28;;;4.00;;
43345;SDS011;28937;51.160;4.146;2022-09-13T05:14:14;4.95;;;3.28;;
43345;SDS011;28937;51.160;4.146;2022-09-13T05:16:39;5.85;;;3.95;;
43345;SDS011;28937;51.160;4.146;2022-09-13T05:19:05;6.32;;;3.85;;
43345;SDS011;28937;51.160;4.146;2022-09-13T05:21:31;6.82;;;4.05;;
43345;SDS011;28937;51.160;4.146;2022-09-13T05:23:57;4.47;;;3.42;;
43345;SDS011;28937;51.160;4.146;2022-09-13T05:26:23;7.45;;;4.10;;
43345;SDS011;28937;51.160;4.146;2022-09-13T05:28:50;6.88;;;4.15;;
43345;SDS011;28937;51.160;4.146;2022-09-13T05:33:51;4.15;;;3.60;;
43345;SDS011;28937;51.160;4.146;2022-09-13T05:36:19;7.07;;;4.15;;
43345;SDS011;28937;51.160;4.146;2022-09-13T05:38:44;4.45;;;4.00;;
43345;SDS011;28937;51.160;4.146;2022-09-13T05:41:10;5.82;;;4.00;;
43345;SDS011;28937;51.160;4.146;2022-09-13T05:43:35;6.65;;;3.70;;
43345;SDS011;28937;51.160;4.146;2022-09-13T05:48:32;13.15;;;3.05;;
43345;SDS011;28937;51.160;4.146;2022-09-13T05:53:32;7.03;;;3.28;;
43345;SDS011;28937;51.160;4.146;2022-09-13T05:55:58;6.03;;;2.92;;
43345;SDS011;28937;51.160;4.146;2022-09-13T05:58:23;4.75;;;2.80;;
43345;SDS011;28937;51.160;4.146;2022-09-13T06:00:53;4.93;;;2.90;;
43345;SDS011;28937;51.160;4.146;2022-09-13T06:03:20;5.40;;;3.17;;
43345;SDS011;28937;51.160;4.146;2022-09-13T06:05:46;4.65;;;3.10;;
43345;SDS011;28937;51.160;4.146;2022-09-13T06:08:12;7.65;;;3.42;;
43345;SDS011;28937;51.160;4.146;2022-09-13T06:10:37;5.05;;;3.50;;
43345;SDS011;28937;51.160;4.146;2022-09-13T06:13:03;6.25;;;3.53;;
43345;SDS011;28937;51.160;4.146;2022-09-13T06:15:28;7.20;;;3.28;;
43345;SDS011;28937;51.160;4.146;2022-09-13T06:17:54;5.72;;;3.22;;
43345;SDS011;28937;51.160;4.146;2022-09-13T06:20:19;7.10;;;4.10;;
43345;SDS011;28937;51.160;4.146;2022-09-13T06:22:46;6.25;;;3.47;;
43345;SDS011;28937;51.160;4.146;2022-09-13T06:25:12;7.35;;;3.22;;
43345;SDS011;28937;51.160;4.146;2022-09-13T06:27:38;9.80;;;3.75;;
43345;SDS011;28937;51.160;4.146;2022-09-13T06:30:03;7.65;;;3.58;;
43345;SDS011;28937;51.160;4.146;2022-09-13T06:32:31;5.95;;;3.25;;
43345;SDS011;28937;51.160;4.146;2022-09-13T06:34:56;5.03;;;3.20;;
43345;SDS011;28937;51.160;4.146;2022-09-13T06:37:22;4.47;;;3.10;;
43345;SDS011;28937;51.160;4.146;2022-09-13T06:39:47;7.68;;;3.97;;
43345;SDS011;28937;51.160;4.146;2022-09-13T06:42:13;5.93;;;3.75;;
43345;SDS011;28937;51.160;4.146;2022-09-13T06:44:38;8.02;;;3.70;;
43345;SDS011;28937;51.160;4.146;2022-09-13T06:47:04;6.35;;;3.45;;
43345;SDS011;28937;51.160;4.146;2022-09-13T06:49:29;6.22;;;3.90;;
43345;SDS011;28937;51.160;4.146;2022-09-13T06:51:55;8.93;;;3.28;;
43345;SDS011;28937;51.160;4.146;2022-09-13T06:54:21;11.60;;;4.00;;
43345;SDS011;28937;51.160;4.146;2022-09-13T06:56:47;6.15;;;4.50;;
43345;SDS011;28937;51.160;4.146;2022-09-13T06:59:13;5.15;;;4.20;;
43345;SDS011;28937;51.160;4.146;2022-09-13T07:01:39;6.75;;;3.40;;
43345;SDS011;28937;51.160;4.146;2022-09-13T07:04:10;5.20;;;3.53;;
43345;SDS011;28937;51.160;4.146;2022-09-13T07:06:39;4.88;;;3.33;;
43345;SDS011;28937;51.160;4.146;2022-09-13T07:09:07;7.30;;;3.88;;
43345;SDS011;28937;51.160;4.146;2022-09-13T07:11:36;6.68;;;3.20;;
43345;SDS011;28937;51.160;4.146;2022-09-13T07:14:04;7.88;;;2.90;;
43345;SDS011;28937;51.160;4.146;2022-09-13T07:16:31;6.75;;;2.60;;
43345;SDS011;28937;51.160;4.146;2022-09-13T07:19:00;8.55;;;5.68;;
43345;SDS011;28937;51.160;4.146;2022-09-13T07:21:29;5.30;;;4.30;;
43345;SDS011;28937;51.160;4.146;2022-09-13T07:23:56;6.80;;;4.85;;
43345;SDS011;28937;51.160;4.146;2022-09-13T07:26:22;4.88;;;3.85;;
43345;SDS011;28937;51.160;4.146;2022-09-13T07:28:51;5.47;;;3.42;;
43345;SDS011;28937;51.160;4.146;2022-09-13T07:31:20;7.80;;;3.67;;
43345;SDS011;28937;51.160;4.146;2022-09-13T07:33:47;5.32;;;3.50;;
43345;SDS011;28937;51.160;4.146;2022-09-13T07:36:17;6.47;;;4.03;;
43345;SDS011;28937;51.160;4.146;2022-09-13T07:38:43;10.15;;;6.20;;
43345;SDS011;28937;51.160;4.146;2022-09-13T07:41:13;7.32;;;4.25;;
43345;SDS011;28937;51.160;4.146;2022-09-13T07:43:40;9.85;;;6.35;;
43345;SDS011;28937;51.160;4.146;2022-09-13T07:46:08;7.65;;;4.28;;
43345;SDS011;28937;51.160;4.146;2022-09-13T07:48:39;7.05;;;4.60;;
43345;SDS011;28937;51.160;4.146;2022-09-13T07:53:43;7.30;;;4.13;;
43345;SDS011;28937;51.160;4.146;2022-09-13T07:56:10;6.50;;;4.07;;
43345;SDS011;28937;51.160;4.146;2022-09-13T07:58:38;8.68;;;4.90;;
43345;SDS011;28937;51.160;4.146;2022-09-13T08:01:09;8.10;;;4.65;;
43345;SDS011;28937;51.160;4.146;2022-09-13T08:03:40;9.45;;;7.40;;
43345;SDS011;28937;51.160;4.146;2022-09-13T08:06:06;9.32;;;8.30;;
43345;SDS011;28937;51.160;4.146;2022-09-13T08:08:32;13.57;;;10.80;;
43345;SDS011;28937;51.160;4.146;2022-09-13T08:10:59;12.80;;;11.00;;
43345;SDS011;28937;51.160;4.146;2022-09-13T08:13:25;12.02;;;10.70;;
43345;SDS011;28937;51.160;4.146;2022-09-13T08:15:52;14.05;;;10.45;;
43345;SDS011;28937;51.160;4.146;2022-09-13T08:18:18;12.18;;;10.32;;
43345;SDS011;28937;51.160;4.146;2022-09-13T08:20:44;12.35;;;11.07;;
43345;SDS011;28937;51.160;4.146;2022-09-13T08:23:10;11.43;;;10.25;;
43345;SDS011;28937;51.160;4.146;2022-09-13T08:25:36;14.55;;;11.43;;
43345;SDS011;28937;51.160;4.146;2022-09-13T08:28:36;11.77;;;10.63;;
43345;SDS011;28937;51.160;4.146;2022-09-13T08:30:55;13.73;;;10.77;;
43345;SDS011;28937;51.160;4.146;2022-09-13T08:33:26;13.45;;;10.57;;
43345;SDS011;28937;51.160;4.146;2022-09-13T08:35:52;14.68;;;12.45;;
43345;SDS011;28937;51.160;4.146;2022-09-13T08:38:19;13.90;;;12.20;;
43345;SDS011;28937;51.160;4.146;2022-09-13T08:40:49;15.55;;;12.13;;
43345;SDS011;28937;51.160;4.146;2022-09-13T08:46:00;13.98;;;12.20;;
43345;SDS011;28937;51.160;4.146;2022-09-13T08:48:34;12.93;;;11.63;;
43345;SDS011;28937;51.160;4.146;2022-09-13T08:51:04;12.30;;;10.82;;
43345;SDS011;28937;51.160;4.146;2022-09-13T08:53:32;12.68;;;11.43;;
43345;SDS011;28937;51.160;4.146;2022-09-13T08:56:08;14.35;;;12.85;;
43345;SDS011;28937;51.160;4.146;2022-09-13T08:58:53;12.70;;;11.40;;
43345;SDS011;28937;51.160;4.146;2022-09-13T09:06:52;14.55;;;12.52;;
43345;SDS011;28937;51.160;4.146;2022-09-13T09:09:33;14.55;;;12.10;;
43345;SDS011;28937;51.160;4.146;2022-09-13T09:12:38;11.05;;;9.93;;
43345;SDS011;28937;51.160;4.146;2022-09-13T09:17:30;12.88;;;11.43;;
43345;SDS011;28937;51.160;4.146;2022-09-13T09:20:23;12.02;;;10.88;;
43345;SDS011;28937;51.160;4.146;2022-09-13T09:22:49;10.93;;;9.82;;
43345;SDS011;28937;51.160;4.146;2022-09-13T09:25:16;9.55;;;8.32;;
43345;SDS011;28937;51.160;4.146;2022-09-13T09:27:43;11.23;;;8.52;;
43345;SDS011;28937;51.160;4.146;2022-09-13T09:30:12;12.93;;;11.73;;
43345;SDS011;28937;51.160;4.146;2022-09-13T09:38:15;12.80;;;11.23;;
43345;SDS011;28937;51.160;4.146;2022-09-13T09:40:52;11.63;;;10.35;;
43345;SDS011;28937;51.160;4.146;2022-09-13T09:43:25;11.68;;;9.73;;
43345;SDS011;28937;51.160;4.146;2022-09-13T09:46:11;11.13;;;8.88;;
43345;SDS011;28937;51.160;4.146;2022-09-13T09:48:47;10.57;;;9.27;;
43345;SDS011;28937;51.160;4.146;2022-09-13T09:51:18;9.70;;;8.70;;
43345;SDS011;28937;51.160;4.146;2022-09-13T09:53:46;8.68;;;6.45;;
43345;SDS011;28937;51.160;4.146;2022-09-13T09:58:47;13.10;;;11.70;;
43345;SDS011;28937;51.160;4.146;2022-09-13T10:01:18;11.90;;;10.68;;
43345;SDS011;28937;51.160;4.146;2022-09-13T10:03:53;11.90;;;10.32;;
43345;SDS011;28937;51.160;4.146;2022-09-13T10:06:23;10.48;;;9.02;;
43345;SDS011;28937;51.160;4.146;2022-09-13T10:08:56;10.77;;;6.75;;
43345;SDS011;28937;51.160;4.146;2022-09-13T10:11:48;12.43;;;9.68;;
43345;SDS011;28937;51.160;4.146;2022-09-13T10:14:28;9.98;;;9.00;;
43345;SDS011;28937;51.160;4.146;2022-09-13T10:17:16;8.60;;;7.50;;
43345;SDS011;28937;51.160;4.146;2022-09-13T10:19:53;8.80;;;7.15;;
43345;SDS011;28937;51.160;4.146;2022-09-13T10:25:41;12.80;;;9.00;;
43345;SDS011;28937;51.160;4.146;2022-09-13T10:28:15;12.55;;;11.25;;
43345;SDS011;28937;51.160;4.146;2022-09-13T10:30:47;12.65;;;11.25;;
43345;SDS011;28937;51.160;4.146;2022-09-13T10:33:31;12.43;;;11.13;;
43345;SDS011;28937;51.160;4.146;2022-09-13T10:36:02;13.65;;;11.10;;
43345;SDS011;28937;51.160;4.146;2022-09-13T10:38:35;11.77;;;10.55;;
43345;SDS011;28937;51.160;4.146;2022-09-13T10:41:04;11.77;;;9.70;;
43345;SDS011;28937;51.160;4.146;2022-09-13T10:43:33;14.18;;;12.63;;
43345;SDS011;28937;51.160;4.146;2022-09-13T10:45:59;11.13;;;9.93;;
43345;SDS011;28937;51.160;4.146;2022-09-13T10:48:28;12.93;;;11.73;;
43345;SDS011;28937;51.160;4.146;2022-09-13T10:51:14;13.27;;;10.95;;
43345;SDS011;28937;51.160;4.146;2022-09-13T10:53:50;11.18;;;9.35;;
43345;SDS011;28937;51.160;4.146;2022-09-13T10:56:31;13.20;;;10.73;;
43345;SDS011;28937;51.160;4.146;2022-09-13T10:59:13;17.58;;;11.82;;
43345;SDS011;28937;51.160;4.146;2022-09-13T11:01:47;11.65;;;9.32;;
43345;SDS011;28937;51.160;4.146;2022-09-13T11:04:39;10.85;;;8.95;;
43345;SDS011;28937;51.160;4.146;2022-09-13T11:07:15;7.53;;;6.65;;
43345;SDS011;28937;51.160;4.146;2022-09-13T11:10:31;8.27;;;5.25;;
43345;SDS011;28937;51.160;4.146;2022-09-13T11:21:25;9.88;;;8.35;;
43345;SDS011;28937;51.160;4.146;2022-09-13T11:37:17;12.57;;;10.00;;
43345;SDS011;28937;51.160;4.146;2022-09-13T11:46:21;7.18;;;5.30;;
43345;SDS011;28937;51.160;4.146;2022-09-13T11:48:58;10.32;;;7.03;;
43345;SDS011;28937;51.160;4.146;2022-09-13T11:57:16;12.02;;;8.18;;
43345;SDS011;28937;51.160;4.146;2022-09-13T11:59:54;10.40;;;5.55;;
43345;SDS011;28937;51.160;4.146;2022-09-13T12:05:12;17.42;;;14.70;;
43345;SDS011;28937;51.160;4.146;2022-09-13T12:08:09;12.27;;;8.25;;
43345;SDS011;28937;51.160;4.146;2022-09-13T12:10:50;6.93;;;3.55;;
43345;SDS011;28937;51.160;4.146;2022-09-13T12:13:24;19.92;;;14.07;;
43345;SDS011;28937;51.160;4.146;2022-09-13T12:16:04;11.63;;;8.20;;
43345;SDS011;28937;51.160;4.146;2022-09-13T12:18:43;8.60;;;4.53;;
43345;SDS011;28937;51.160;4.146;2022-09-13T12:21:15;25.17;;;14.23;;
43345;SDS011;28937;51.160;4.146;2022-09-13T12:26:36;15.93;;;11.23;;
43345;SDS011;28937;51.160;4.146;2022-09-13T12:31:58;10.10;;;8.38;;
43345;SDS011;28937;51.160;4.146;2022-09-13T12:34:32;12.15;;;7.57;;
43345;SDS011;28937;51.160;4.146;2022-09-13T12:40:02;19.10;;;11.10;;
43345;SDS011;28937;51.160;4.146;2022-09-13T12:56:38;8.38;;;6.68;;
43345;SDS011;28937;51.160;4.146;2022-09-13T13:01:59;4.10;;;3.28;;
43345;SDS011;28937;51.160;4.146;2022-09-13T13:04:29;5.63;;;3.13;;
43345;SDS011;28937;51.160;4.146;2022-09-13T13:09:44;10.57;;;7.45;;
43345;SDS011;28937;51.160;4.146;2022-09-13T13:15:05;12.30;;;7.63;;
43345;SDS011;28937;51.160;4.146;2022-09-13T13:39:04;9.85;;;7.90;;
43345;SDS011;28937;51.160;4.146;2022-09-13T13:41:35;9.80;;;8.40;;
43345;SDS011;28937;51.160;4.146;2022-09-13T13:44:53;8.93;;;8.02;;
43345;SDS011;28937;51.160;4.146;2022-09-13T13:46:50;10.43;;;8.25;;
43345;SDS011;28937;51.160;4.146;2022-09-13T14:16:30;10.07;;;7.65;;
43345;SDS011;28937;51.160;4.146;2022-09-13T14:21:39;11.07;;;8.05;;
43345;SDS011;28937;51.160;4.146;2022-09-13T14:26:42;6.50;;;5.93;;
43345;SDS011;28937;51.160;4.146;2022-09-13T14:29:08;9.80;;;7.72;;
43345;SDS011;28937;51.160;4.146;2022-09-13T14:31:37;7.65;;;6.90;;
43345;SDS011;28937;51.160;4.146;2022-09-13T14:34:03;9.10;;;6.38;;
43345;SDS011;28937;51.160;4.146;2022-09-13T14:36:28;8.23;;;7.47;;
43345;SDS011;28937;51.160;4.146;2022-09-13T14:38:57;7.80;;;7.00;;
43345;SDS011;28937;51.160;4.146;2022-09-13T14:41:35;7.47;;;6.72;;
43345;SDS011;28937;51.160;4.146;2022-09-13T14:44:20;7.53;;;6.75;;
43345;SDS011;28937;51.160;4.146;2022-09-13T14:46:56;7.38;;;6.68;;
43345;SDS011;28937;51.160;4.146;2022-09-13T14:49:37;12.13;;;7.47;;
43345;SDS011;28937;51.160;4.146;2022-09-13T14:52:08;8.80;;;7.10;;
43345;SDS011;28937;51.160;4.146;2022-09-13T14:54:43;7.70;;;6.88;;
43345;SDS011;28937;51.160;4.146;2022-09-13T15:00:02;11.80;;;6.57;;
43345;SDS011;28937;51.160;4.146;2022-09-13T15:02:41;7.88;;;7.07;;
43345;SDS011;28937;51.160;4.146;2022-09-13T15:05:15;9.20;;;8.23;;
43345;SDS011;28937;51.160;4.146;2022-09-13T15:07:43;8.60;;;7.57;;
43345;SDS011;28937;51.160;4.146;2022-09-13T15:10:30;8.13;;;7.32;;
43345;SDS011;28937;51.160;4.146;2022-09-13T15:20:24;8.93;;;5.82;;
43345;SDS011;28937;51.160;4.146;2022-09-13T15:22:52;7.25;;;6.65;;
43345;SDS011;28937;51.160;4.146;2022-09-13T15:25:19;10.40;;;7.38;;
43345;SDS011;28937;51.160;4.146;2022-09-13T15:27:53;9.50;;;8.52;;
43345;SDS011;28937;51.160;4.146;2022-09-13T15:30:25;8.82;;;8.02;;
43345;SDS011;28937;51.160;4.146;2022-09-13T15:35:37;8.13;;;7.28;;
43345;SDS011;28937;51.160;4.146;2022-09-13T15:38:25;8.93;;;7.60;;
43345;SDS011;28937;51.160;4.146;2022-09-13T15:43:28;8.55;;;7.00;;
43345;SDS011;28937;51.160;4.146;2022-09-13T15:45:55;7.03;;;6.40;;
43345;SDS011;28937;51.160;4.146;2022-09-13T15:48:25;7.90;;;6.50;;
43345;SDS011;28937;51.160;4.146;2022-09-13T15:51:06;8.38;;;6.07;;
43345;SDS011;28937;51.160;4.146;2022-09-13T15:53:37;7.93;;;6.03;;
43345;SDS011;28937;51.160;4.146;2022-09-13T15:56:04;7.25;;;5.55;;
43345;SDS011;28937;51.160;4.146;2022-09-13T15:58:31;7.32;;;5.45;;
43345;SDS011;28937;51.160;4.146;2022-09-13T16:00:57;7.78;;;4.80;;
43345;SDS011;28937;51.160;4.146;2022-09-13T16:03:26;10.88;;;5.75;;
43345;SDS011;28937;51.160;4.146;2022-09-13T16:05:51;10.02;;;5.18;;
43345;SDS011;28937;51.160;4.146;2022-09-13T16:08:17;4.53;;;4.07;;
43345;SDS011;28937;51.160;4.146;2022-09-13T16:10:43;6.35;;;4.38;;
43345;SDS011;28937;51.160;4.146;2022-09-13T16:13:09;9.48;;;4.80;;
43345;SDS011;28937;51.160;4.146;2022-09-13T16:15:34;9.48;;;4.45;;
43345;SDS011;28937;51.160;4.146;2022-09-13T16:18:00;6.90;;;3.42;;
43345;SDS011;28937;51.160;4.146;2022-09-13T16:20:26;5.28;;;3.67;;
43345;SDS011;28937;51.160;4.146;2022-09-13T16:22:52;9.32;;;3.10;;
43345;SDS011;28937;51.160;4.146;2022-09-13T16:25:18;7.45;;;2.95;;
43345;SDS011;28937;51.160;4.146;2022-09-13T16:27:44;7.13;;;2.63;;
43345;SDS011;28937;51.160;4.146;2022-09-13T16:30:14;5.78;;;3.13;;
43345;SDS011;28937;51.160;4.146;2022-09-13T16:35:08;7.90;;;2.88;;
43345;SDS011;28937;51.160;4.146;2022-09-13T16:37:35;7.00;;;2.95;;
43345;SDS011;28937;51.160;4.146;2022-09-13T16:40:01;6.03;;;2.40;;
43345;SDS011;28937;51.160;4.146;2022-09-13T16:42:27;5.78;;;2.70;;
43345;SDS011;28937;51.160;4.146;2022-09-13T16:44:52;5.57;;;2.25;;
43345;SDS011;28937;51.160;4.146;2022-09-13T16:47:18;7.38;;;3.15;;
43345;SDS011;28937;51.160;4.146;2022-09-13T16:49:43;6.68;;;3.00;;
43345;SDS011;28937;51.160;4.146;2022-09-13T16:52:09;9.25;;;3.75;;
43345;SDS011;28937;51.160;4.146;2022-09-13T16:54:35;4.30;;;2.40;;
43345;SDS011;28937;51.160;4.146;2022-09-13T16:57:02;6.82;;;2.60;;
43345;SDS011;28937;51.160;4.146;2022-09-13T16:59:29;4.85;;;2.63;;
43345;SDS011;28937;51.160;4.146;2022-09-13T17:01:55;7.32;;;2.53;;
43345;SDS011;28937;51.160;4.146;2022-09-13T17:04:21;4.25;;;1.95;;
43345;SDS011;28937;51.160;4.146;2022-09-13T17:06:47;7.68;;;2.63;;
43345;SDS011;28937;51.160;4.146;2022-09-13T17:09:13;7.20;;;2.58;;
43345;SDS011;28937;51.160;4.146;2022-09-13T17:11:40;7.60;;;2.53;;
43345;SDS011;28937;51.160;4.146;2022-09-13T17:14:08;6.25;;;2.00;;
43345;SDS011;28937;51.160;4.146;2022-09-13T17:16:40;6.25;;;2.10;;
43345;SDS011;28937;51.160;4.146;2022-09-13T17:19:18;8.88;;;2.10;;
43345;SDS011;28937;51.160;4.146;2022-09-13T17:21:50;8.13;;;2.20;;
43345;SDS011;28937;51.160;4.146;2022-09-13T17:24:16;5.40;;;1.70;;
43345;SDS011;28937;51.160;4.146;2022-09-13T17:26:42;7.20;;;1.98;;
43345;SDS011;28937;51.160;4.146;2022-09-13T17:29:11;5.93;;;1.73;;
43345;SDS011;28937;51.160;4.146;2022-09-13T17:31:38;5.88;;;1.92;;
43345;SDS011;28937;51.160;4.146;2022-09-13T17:34:03;4.57;;;1.73;;
43345;SDS011;28937;51.160;4.146;2022-09-13T17:36:29;3.85;;;1.77;;
43345;SDS011;28937;51.160;4.146;2022-09-13T17:38:55;3.03;;;1.48;;
43345;SDS011;28937;51.160;4.146;2022-09-13T17:41:21;8.95;;;2.28;;
43345;SDS011;28937;51.160;4.146;2022-09-13T17:43:48;8.57;;;1.75;;
43345;SDS011;28937;51.160;4.146;2022-09-13T17:46:15;8.43;;;2.15;;
43345;SDS011;28937;51.160;4.146;2022-09-13T17:48:45;6.13;;;1.80;;
43345;SDS011;28937;51.160;4.146;2022-09-13T17:51:11;6.10;;;1.85;;
43345;SDS011;28937;51.160;4.146;2022-09-13T17:53:39;5.28;;;1.65;;
43345;SDS011;28937;51.160;4.146;2022-09-13T17:56:07;6.57;;;1.70;;
43345;SDS011;28937;51.160;4.146;2022-09-13T17:58:33;5.57;;;1.92;;
43345;SDS011;28937;51.160;4.146;2022-09-13T18:01:06;7.03;;;2.00;;
43345;SDS011;28937;51.160;4.146;2022-09-13T18:03:33;6.13;;;1.35;;
43345;SDS011;28937;51.160;4.146;2022-09-13T18:06:01;6.10;;;1.83;;
43345;SDS011;28937;51.160;4.146;2022-09-13T18:08:29;6.90;;;2.20;;
43345;SDS011;28937;51.160;4.146;2022-09-13T18:13:28;5.95;;;1.85;;
43345;SDS011;28937;51.160;4.146;2022-09-13T18:16:07;6.97;;;2.05;;
43345;SDS011;28937;51.160;4.146;2022-09-13T18:18:38;5.28;;;1.83;;
43345;SDS011;28937;51.160;4.146;2022-09-13T18:21:04;7.55;;;1.98;;
43345;SDS011;28937;51.160;4.146;2022-09-13T18:23:31;8.60;;;1.63;;
43345;SDS011;28937;51.160;4.146;2022-09-13T18:25:58;7.88;;;1.80;;
43345;SDS011;28937;51.160;4.146;2022-09-13T18:28:28;4.22;;;1.55;;
43345;SDS011;28937;51.160;4.146;2022-09-13T18:30:58;6.90;;;2.00;;
43345;SDS011;28937;51.160;4.146;2022-09-13T18:33:26;6.57;;;2.30;;
43345;SDS011;28937;51.160;4.146;2022-09-13T18:38:21;4.88;;;1.75;;
43345;SDS011;28937;51.160;4.146;2022-09-13T18:40:46;7.45;;;2.08;;
43345;SDS011;28937;51.160;4.146;2022-09-13T18:43:21;4.70;;;1.70;;
43345;SDS011;28937;51.160;4.146;2022-09-13T18:45:52;4.82;;;1.88;;
43345;SDS011;28937;51.160;4.146;2022-09-13T18:48:21;5.05;;;1.60;;
43345;SDS011;28937;51.160;4.146;2022-09-13T18:50:47;5.60;;;1.83;;
43345;SDS011;28937;51.160;4.146;2022-09-13T18:53:13;5.22;;;1.48;;
43345;SDS011;28937;51.160;4.146;2022-09-13T18:55:38;6.85;;;2.20;;
43345;SDS011;28937;51.160;4.146;2022-09-13T18:58:04;4.78;;;1.63;;